sensor_id;sensor_type;location;lat;lon;timestamp;P1;durP1;ratioP1;P2;durP2;ratioP2
27706;SDS011;36332;51.384;0.040;2023-04-03T00:01:21;9.18;;;2.55;;
27706;SDS011;36332;51.384;0.040;2023-04-03T00:03:49;17.20;;;3.63;;
27706;SDS011;36332;51.384;0.040;2023-04-03T00:06:18;16.27;;;2.67;;
27706;SDS011;36332;51.384;0.040;2023-04-03T00:08:46;11.75;;;3.30;;
27706;SDS011;36332;51.384;0.040;2023-04-03T00:11:14;16.92;;;3.28;;
27706;SDS011;36332;51.384;0.040;2023-04-03T00:13:42;11.23;;;2.80;;
27706;SDS011;36332;51.384;0.040;2023-04-03T00:16:11;15.00;;;2.90;;
27706;SDS011;36332;51.384;0.040;2023-04-03T00:18:39;16.52;;;3.25;;
27706;SDS011;36332;51.384;0.040;2023-04-03T00:21:07;22.95;;;3.08;;
27706;SDS011;36332;51.384;0.040;2023-04-03T00:23:35;16.13;;;3.05;;
27706;SDS011;36332;51.384;0.040;2023-04-03T00:26:03;14.10;;;3.45;;
27706;SDS011;36332;51.384;0.040;2023-04-03T00:28:30;15.13;;;2.40;;
27706;SDS011;36332;51.384;0.040;2023-04-03T00:30:58;29.67;;;4.80;;
27706;SDS011;36332;51.384;0.040;2023-04-03T00:33:26;15.52;;;2.67;;
27706;SDS011;36332;51.384;0.040;2023-04-03T00:35:54;14.63;;;3.03;;
27706;SDS011;36332;51.384;0.040;2023-04-03T00:38:22;10.38;;;3.42;;
27706;SDS011;36332;51.384;0.040;2023-04-03T00:40:50;18.35;;;3.30;;
27706;SDS011;36332;51.384;0.040;2023-04-03T00:43:23;14.52;;;2.63;;
27706;SDS011;36332;51.384;0.040;2023-04-03T00:45:52;10.55;;;3.08;;
27706;SDS011;36332;51.384;0.040;2023-04-03T00:48:26;25.65;;;3.88;;
27706;SDS011;36332;51.384;0.040;2023-04-03T00:50:59;18.80;;;3.20;;
27706;SDS011;36332;51.384;0.040;2023-04-03T00:53:33;11.82;;;2.58;;
27706;SDS011;36332;51.384;0.040;2023-04-03T00:56:05;13.40;;;2.88;;
27706;SDS011;36332;51.384;0.040;2023-04-03T00:58:44;12.75;;;2.53;;
27706;SDS011;36332;51.384;0.040;2023-04-03T01:01:22;16.13;;;2.50;;
27706;SDS011;36332;51.384;0.040;2023-04-03T01:03:52;12.25;;;2.80;;
27706;SDS011;36332;51.384;0.040;2023-04-03T01:06:23;37.83;;;4.03;;
27706;SDS011;36332;51.384;0.040;2023-04-03T01:08:58;14.50;;;2.72;;
27706;SDS011;36332;51.384;0.040;2023-04-03T01:11:27;9.80;;;3.03;;
27706;SDS011;36332;51.384;0.040;2023-04-03T01:13:55;15.88;;;2.88;;
27706;SDS011;36332;51.384;0.040;2023-04-03T01:16:24;18.67;;;2.80;;
27706;SDS011;36332;51.384;0.040;2023-04-03T01:18:52;12.93;;;2.97;;
27706;SDS011;36332;51.384;0.040;2023-04-03T01:21:28;13.18;;;3.03;;
27706;SDS011;36332;51.384;0.040;2023-04-03T01:26:55;16.02;;;3.03;;
27706;SDS011;36332;51.384;0.040;2023-04-03T01:29:23;13.98;;;2.65;;
27706;SDS011;36332;51.384;0.040;2023-04-03T01:31:54;11.73;;;2.65;;
27706;SDS011;36332;51.384;0.040;2023-04-03T01:34:24;22.27;;;6.47;;
27706;SDS011;36332;51.384;0.040;2023-04-03T01:36:52;16.20;;;2.97;;
27706;SDS011;36332;51.384;0.040;2023-04-03T01:39:20;11.82;;;3.00;;
27706;SDS011;36332;51.384;0.040;2023-04-03T01:41:48;16.13;;;2.75;;
27706;SDS011;36332;51.384;0.040;2023-04-03T01:44:23;13.13;;;2.97;;
27706;SDS011;36332;51.384;0.040;2023-04-03T01:46:51;17.42;;;3.53;;
27706;SDS011;36332;51.384;0.040;2023-04-03T01:49:20;21.88;;;3.53;;
27706;SDS011;36332;51.384;0.040;2023-04-03T01:51:48;15.50;;;3.92;;
27706;SDS011;36332;51.384;0.040;2023-04-03T01:54:16;18.50;;;2.85;;
27706;SDS011;36332;51.384;0.040;2023-04-03T01:56:44;12.25;;;2.78;;
27706;SDS011;36332;51.384;0.040;2023-04-03T01:59:13;13.32;;;3.08;;
27706;SDS011;36332;51.384;0.040;2023-04-03T02:01:44;11.55;;;3.00;;
27706;SDS011;36332;51.384;0.040;2023-04-03T02:04:12;10.18;;;3.13;;
27706;SDS011;36332;51.384;0.040;2023-04-03T02:06:40;10.30;;;2.63;;
27706;SDS011;36332;51.384;0.040;2023-04-03T02:09:08;13.35;;;3.00;;
27706;SDS011;36332;51.384;0.040;2023-04-03T02:11:36;10.68;;;3.08;;
27706;SDS011;36332;51.384;0.040;2023-04-03T02:14:04;11.25;;;2.90;;
27706;SDS011;36332;51.384;0.040;2023-04-03T02:16:32;11.93;;;4.57;;
27706;SDS011;36332;51.384;0.040;2023-04-03T02:18:59;17.15;;;3.28;;
27706;SDS011;36332;51.384;0.040;2023-04-03T02:21:29;10.45;;;2.92;;
27706;SDS011;36332;51.384;0.040;2023-04-03T02:23:57;10.20;;;2.78;;
27706;SDS011;36332;51.384;0.040;2023-04-03T02:26:25;11.88;;;3.90;;
27706;SDS011;36332;51.384;0.040;2023-04-03T02:28:53;16.48;;;4.28;;
27706;SDS011;36332;51.384;0.040;2023-04-03T02:31:21;9.43;;;2.53;;
27706;SDS011;36332;51.384;0.040;2023-04-03T02:33:49;12.90;;;3.10;;
27706;SDS011;36332;51.384;0.040;2023-04-03T02:36:18;13.45;;;3.28;;
27706;SDS011;36332;51.384;0.040;2023-04-03T02:38:51;12.88;;;4.78;;
27706;SDS011;36332;51.384;0.040;2023-04-03T02:41:19;16.45;;;2.72;;
27706;SDS011;36332;51.384;0.040;2023-04-03T02:43:49;11.70;;;3.17;;
27706;SDS011;36332;51.384;0.040;2023-04-03T02:46:17;12.90;;;2.92;;
27706;SDS011;36332;51.384;0.040;2023-04-03T02:48:45;16.30;;;3.05;;
27706;SDS011;36332;51.384;0.040;2023-04-03T02:51:13;15.55;;;2.85;;
27706;SDS011;36332;51.384;0.040;2023-04-03T02:53:40;20.63;;;3.08;;
27706;SDS011;36332;51.384;0.040;2023-04-03T02:56:14;5.43;;;2.55;;
27706;SDS011;36332;51.384;0.040;2023-04-03T02:58:42;11.40;;;3.42;;
27706;SDS011;36332;51.384;0.040;2023-04-03T03:01:10;9.15;;;3.28;;
27706;SDS011;36332;51.384;0.040;2023-04-03T03:03:39;10.60;;;2.72;;
27706;SDS011;36332;51.384;0.040;2023-04-03T03:06:08;14.98;;;3.30;;
27706;SDS011;36332;51.384;0.040;2023-04-03T03:08:39;19.80;;;3.28;;
27706;SDS011;36332;51.384;0.040;2023-04-03T03:11:07;12.75;;;2.88;;
27706;SDS011;36332;51.384;0.040;2023-04-03T03:13:35;8.63;;;2.75;;
27706;SDS011;36332;51.384;0.040;2023-04-03T03:16:03;16.60;;;3.65;;
27706;SDS011;36332;51.384;0.040;2023-04-03T03:18:32;14.00;;;3.25;;
27706;SDS011;36332;51.384;0.040;2023-04-03T03:21:01;11.25;;;3.42;;
27706;SDS011;36332;51.384;0.040;2023-04-03T03:23:30;20.48;;;4.50;;
27706;SDS011;36332;51.384;0.040;2023-04-03T03:26:00;15.93;;;3.28;;
27706;SDS011;36332;51.384;0.040;2023-04-03T03:28:31;13.27;;;3.08;;
27706;SDS011;36332;51.384;0.040;2023-04-03T03:30:59;14.75;;;3.00;;
27706;SDS011;36332;51.384;0.040;2023-04-03T03:33:28;13.50;;;2.85;;
27706;SDS011;36332;51.384;0.040;2023-04-03T03:35:56;16.73;;;3.45;;
27706;SDS011;36332;51.384;0.040;2023-04-03T03:38:24;14.05;;;3.53;;
27706;SDS011;36332;51.384;0.040;2023-04-03T03:40:53;13.07;;;3.08;;
27706;SDS011;36332;51.384;0.040;2023-04-03T03:43:22;15.48;;;3.25;;
27706;SDS011;36332;51.384;0.040;2023-04-03T03:45:52;10.35;;;2.83;;
27706;SDS011;36332;51.384;0.040;2023-04-03T03:48:22;12.45;;;2.78;;
27706;SDS011;36332;51.384;0.040;2023-04-03T03:50:51;16.10;;;3.17;;
27706;SDS011;36332;51.384;0.040;2023-04-03T03:53:22;10.30;;;2.83;;
27706;SDS011;36332;51.384;0.040;2023-04-03T03:55:53;15.40;;;3.63;;
27706;SDS011;36332;51.384;0.040;2023-04-03T03:58:24;13.65;;;3.15;;
27706;SDS011;36332;51.384;0.040;2023-04-03T04:00:51;14.60;;;3.45;;
27706;SDS011;36332;51.384;0.040;2023-04-03T04:03:19;8.70;;;3.70;;
27706;SDS011;36332;51.384;0.040;2023-04-03T04:05:49;17.10;;;4.05;;
27706;SDS011;36332;51.384;0.040;2023-04-03T04:08:17;8.60;;;3.55;;
27706;SDS011;36332;51.384;0.040;2023-04-03T04:10:45;17.13;;;4.45;;
27706;SDS011;36332;51.384;0.040;2023-04-03T04:13:15;10.85;;;3.28;;
27706;SDS011;36332;51.384;0.040;2023-04-03T04:15:44;9.75;;;2.90;;
27706;SDS011;36332;51.384;0.040;2023-04-03T04:18:13;10.65;;;3.88;;
27706;SDS011;36332;51.384;0.040;2023-04-03T04:20:44;9.68;;;3.78;;
27706;SDS011;36332;51.384;0.040;2023-04-03T04:23:13;8.77;;;3.13;;
27706;SDS011;36332;51.384;0.040;2023-04-03T04:25:43;8.32;;;3.53;;
27706;SDS011;36332;51.384;0.040;2023-04-03T04:28:13;15.77;;;4.53;;
27706;SDS011;36332;51.384;0.040;2023-04-03T04:30:41;7.90;;;3.38;;
27706;SDS011;36332;51.384;0.040;2023-04-03T04:33:09;12.77;;;3.40;;
27706;SDS011;36332;51.384;0.040;2023-04-03T04:35:38;10.65;;;3.05;;
27706;SDS011;36332;51.384;0.040;2023-04-03T04:38:06;11.38;;;3.33;;
27706;SDS011;36332;51.384;0.040;2023-04-03T04:40:36;13.00;;;3.67;;
27706;SDS011;36332;51.384;0.040;2023-04-03T04:43:05;12.63;;;4.18;;
27706;SDS011;36332;51.384;0.040;2023-04-03T04:45:33;17.10;;;3.53;;
27706;SDS011;36332;51.384;0.040;2023-04-03T04:48:02;12.48;;;3.63;;
27706;SDS011;36332;51.384;0.040;2023-04-03T04:50:29;9.15;;;3.92;;
27706;SDS011;36332;51.384;0.040;2023-04-03T04:52:57;17.98;;;3.70;;
27706;SDS011;36332;51.384;0.040;2023-04-03T04:55:25;17.42;;;3.78;;
27706;SDS011;36332;51.384;0.040;2023-04-03T04:57:53;11.80;;;3.33;;
27706;SDS011;36332;51.384;0.040;2023-04-03T05:00:21;14.52;;;3.42;;
27706;SDS011;36332;51.384;0.040;2023-04-03T05:02:49;9.32;;;3.30;;
27706;SDS011;36332;51.384;0.040;2023-04-03T05:05:18;10.52;;;3.10;;
27706;SDS011;36332;51.384;0.040;2023-04-03T05:07:47;10.75;;;2.83;;
27706;SDS011;36332;51.384;0.040;2023-04-03T05:10:15;17.77;;;3.10;;
27706;SDS011;36332;51.384;0.040;2023-04-03T05:12:44;11.32;;;3.90;;
27706;SDS011;36332;51.384;0.040;2023-04-03T05:15:12;13.43;;;3.40;;
27706;SDS011;36332;51.384;0.040;2023-04-03T05:17:40;11.25;;;4.65;;
27706;SDS011;36332;51.384;0.040;2023-04-03T05:20:12;10.30;;;3.40;;
27706;SDS011;36332;51.384;0.040;2023-04-03T05:22:41;14.95;;;4.13;;
27706;SDS011;36332;51.384;0.040;2023-04-03T05:25:10;10.18;;;3.30;;
27706;SDS011;36332;51.384;0.040;2023-04-03T05:27:40;12.38;;;3.55;;
27706;SDS011;36332;51.384;0.040;2023-04-03T05:30:08;11.50;;;3.35;;
27706;SDS011;36332;51.384;0.040;2023-04-03T05:32:39;40.90;;;7.60;;
27706;SDS011;36332;51.384;0.040;2023-04-03T05:35:19;15.63;;;3.58;;
27706;SDS011;36332;51.384;0.040;2023-04-03T05:37:50;14.70;;;3.45;;
27706;SDS011;36332;51.384;0.040;2023-04-03T05:40:19;15.43;;;3.65;;
27706;SDS011;36332;51.384;0.040;2023-04-03T05:42:50;15.75;;;3.97;;
27706;SDS011;36332;51.384;0.040;2023-04-03T05:45:22;7.30;;;3.00;;
27706;SDS011;36332;51.384;0.040;2023-04-03T05:47:50;12.40;;;4.32;;
27706;SDS011;36332;51.384;0.040;2023-04-03T05:50:18;11.40;;;3.42;;
27706;SDS011;36332;51.384;0.040;2023-04-03T05:52:49;8.65;;;3.90;;
27706;SDS011;36332;51.384;0.040;2023-04-03T05:55:20;9.65;;;4.50;;
27706;SDS011;36332;51.384;0.040;2023-04-03T05:57:47;19.38;;;5.65;;
27706;SDS011;36332;51.384;0.040;2023-04-03T06:00:15;13.85;;;4.15;;
27706;SDS011;36332;51.384;0.040;2023-04-03T06:02:52;23.13;;;4.30;;
27706;SDS011;36332;51.384;0.040;2023-04-03T06:05:23;14.40;;;4.20;;
27706;SDS011;36332;51.384;0.040;2023-04-03T06:07:51;10.52;;;3.50;;
27706;SDS011;36332;51.384;0.040;2023-04-03T06:10:18;6.78;;;3.70;;
27706;SDS011;36332;51.384;0.040;2023-04-03T06:12:47;12.77;;;3.92;;
27706;SDS011;36332;51.384;0.040;2023-04-03T06:15:14;18.20;;;4.95;;
27706;SDS011;36332;51.384;0.040;2023-04-03T06:17:43;9.73;;;4.05;;
27706;SDS011;36332;51.384;0.040;2023-04-03T06:20:12;17.80;;;4.03;;
27706;SDS011;36332;51.384;0.040;2023-04-03T06:22:40;15.20;;;3.97;;
27706;SDS011;36332;51.384;0.040;2023-04-03T06:25:10;18.08;;;3.25;;
27706;SDS011;36332;51.384;0.040;2023-04-03T06:27:38;32.95;;;7.25;;
27706;SDS011;36332;51.384;0.040;2023-04-03T06:30:06;19.17;;;4.80;;
27706;SDS011;36332;51.384;0.040;2023-04-03T06:32:35;21.33;;;4.47;;
27706;SDS011;36332;51.384;0.040;2023-04-03T06:35:03;17.25;;;4.88;;
27706;SDS011;36332;51.384;0.040;2023-04-03T06:37:31;11.13;;;3.70;;
27706;SDS011;36332;51.384;0.040;2023-04-03T06:39:59;11.15;;;4.00;;
27706;SDS011;36332;51.384;0.040;2023-04-03T06:42:27;12.43;;;4.13;;
27706;SDS011;36332;51.384;0.040;2023-04-03T06:45:05;14.07;;;5.13;;
27706;SDS011;36332;51.384;0.040;2023-04-03T06:47:34;17.90;;;3.95;;
27706;SDS011;36332;51.384;0.040;2023-04-03T06:50:03;10.25;;;4.43;;
27706;SDS011;36332;51.384;0.040;2023-04-03T06:52:30;21.27;;;4.68;;
27706;SDS011;36332;51.384;0.040;2023-04-03T06:54:58;19.35;;;5.90;;
27706;SDS011;36332;51.384;0.040;2023-04-03T06:57:27;14.48;;;5.03;;
27706;SDS011;36332;51.384;0.040;2023-04-03T06:59:55;15.60;;;4.72;;
27706;SDS011;36332;51.384;0.040;2023-04-03T07:02:23;16.30;;;5.50;;
27706;SDS011;36332;51.384;0.040;2023-04-03T07:04:51;10.05;;;4.43;;
27706;SDS011;36332;51.384;0.040;2023-04-03T07:07:19;20.23;;;4.60;;
27706;SDS011;36332;51.384;0.040;2023-04-03T07:09:47;17.08;;;3.90;;
27706;SDS011;36332;51.384;0.040;2023-04-03T07:12:15;9.10;;;4.75;;
27706;SDS011;36332;51.384;0.040;2023-04-03T07:14:43;15.85;;;5.03;;
27706;SDS011;36332;51.384;0.040;2023-04-03T07:17:11;15.60;;;5.40;;
27706;SDS011;36332;51.384;0.040;2023-04-03T07:19:39;17.63;;;5.07;;
27706;SDS011;36332;51.384;0.040;2023-04-03T07:22:07;15.30;;;4.13;;
27706;SDS011;36332;51.384;0.040;2023-04-03T07:24:35;17.50;;;5.75;;
27706;SDS011;36332;51.384;0.040;2023-04-03T07:27:03;21.10;;;5.38;;
27706;SDS011;36332;51.384;0.040;2023-04-03T07:29:30;15.40;;;4.30;;
27706;SDS011;36332;51.384;0.040;2023-04-03T07:31:58;13.63;;;4.97;;
27706;SDS011;36332;51.384;0.040;2023-04-03T07:34:26;18.30;;;4.95;;
27706;SDS011;36332;51.384;0.040;2023-04-03T07:36:54;21.60;;;5.00;;
27706;SDS011;36332;51.384;0.040;2023-04-03T07:39:23;15.52;;;5.55;;
27706;SDS011;36332;51.384;0.040;2023-04-03T07:41:51;14.18;;;4.47;;
27706;SDS011;36332;51.384;0.040;2023-04-03T07:44:19;15.88;;;4.72;;
27706;SDS011;36332;51.384;0.040;2023-04-03T07:46:46;15.35;;;4.40;;
27706;SDS011;36332;51.384;0.040;2023-04-03T07:49:15;19.63;;;4.50;;
27706;SDS011;36332;51.384;0.040;2023-04-03T07:51:44;13.50;;;5.78;;
27706;SDS011;36332;51.384;0.040;2023-04-03T07:54:12;16.00;;;4.00;;
27706;SDS011;36332;51.384;0.040;2023-04-03T07:56:39;20.85;;;5.05;;
27706;SDS011;36332;51.384;0.040;2023-04-03T07:59:08;19.42;;;5.60;;
27706;SDS011;36332;51.384;0.040;2023-04-03T08:01:37;12.45;;;5.25;;
27706;SDS011;36332;51.384;0.040;2023-04-03T08:04:05;13.48;;;5.85;;
27706;SDS011;36332;51.384;0.040;2023-04-03T08:06:34;14.05;;;5.65;;
27706;SDS011;36332;51.384;0.040;2023-04-03T08:09:13;20.05;;;6.47;;
27706;SDS011;36332;51.384;0.040;2023-04-03T08:11:42;16.58;;;5.63;;
27706;SDS011;36332;51.384;0.040;2023-04-03T08:14:11;20.42;;;5.60;;
27706;SDS011;36332;51.384;0.040;2023-04-03T08:16:44;20.58;;;5.53;;
27706;SDS011;36332;51.384;0.040;2023-04-03T08:19:14;13.35;;;6.47;;
27706;SDS011;36332;51.384;0.040;2023-04-03T08:21:53;20.80;;;6.03;;
27706;SDS011;36332;51.384;0.040;2023-04-03T08:24:21;17.65;;;6.25;;
27706;SDS011;36332;51.384;0.040;2023-04-03T08:26:49;18.02;;;7.03;;
27706;SDS011;36332;51.384;0.040;2023-04-03T08:29:17;15.68;;;6.60;;
27706;SDS011;36332;51.384;0.040;2023-04-03T08:31:44;16.58;;;6.05;;
27706;SDS011;36332;51.384;0.040;2023-04-03T08:34:13;23.67;;;6.72;;
27706;SDS011;36332;51.384;0.040;2023-04-03T08:36:41;15.23;;;5.20;;
27706;SDS011;36332;51.384;0.040;2023-04-03T08:39:09;20.17;;;6.43;;
27706;SDS011;36332;51.384;0.040;2023-04-03T08:41:41;19.25;;;6.10;;
27706;SDS011;36332;51.384;0.040;2023-04-03T08:49:48;14.73;;;5.75;;
27706;SDS011;36332;51.384;0.040;2023-04-03T08:55:25;17.92;;;6.68;;
27706;SDS011;36332;51.384;0.040;2023-04-03T08:58:05;17.17;;;6.88;;
27706;SDS011;36332;51.384;0.040;2023-04-03T09:03:31;14.25;;;6.30;;
27706;SDS011;36332;51.384;0.040;2023-04-03T09:06:07;27.00;;;7.38;;
27706;SDS011;36332;51.384;0.040;2023-04-03T09:08:53;20.27;;;6.78;;
27706;SDS011;36332;51.384;0.040;2023-04-03T09:17:26;22.55;;;8.05;;
27706;SDS011;36332;51.384;0.040;2023-04-03T09:20:24;20.85;;;7.32;;
27706;SDS011;36332;51.384;0.040;2023-04-03T09:25:50;22.52;;;8.77;;
27706;SDS011;36332;51.384;0.040;2023-04-03T09:28:23;23.52;;;8.88;;
27706;SDS011;36332;51.384;0.040;2023-04-03T09:30:52;22.90;;;7.95;;
27706;SDS011;36332;51.384;0.040;2023-04-03T09:33:20;16.58;;;6.80;;
27706;SDS011;36332;51.384;0.040;2023-04-03T09:35:49;24.70;;;7.63;;
27706;SDS011;36332;51.384;0.040;2023-04-03T09:38:19;18.52;;;6.60;;
27706;SDS011;36332;51.384;0.040;2023-04-03T09:43:30;17.02;;;7.93;;
27706;SDS011;36332;51.384;0.040;2023-04-03T09:49:01;17.65;;;7.32;;
27706;SDS011;36332;51.384;0.040;2023-04-03T09:51:36;22.00;;;8.35;;
27706;SDS011;36332;51.384;0.040;2023-04-03T09:54:30;18.30;;;7.60;;
27706;SDS011;36332;51.384;0.040;2023-04-03T09:57:09;20.10;;;7.38;;
27706;SDS011;36332;51.384;0.040;2023-04-03T09:59:41;24.92;;;7.57;;
27706;SDS011;36332;51.384;0.040;2023-04-03T10:05:00;16.47;;;6.50;;
27706;SDS011;36332;51.384;0.040;2023-04-03T10:07:34;16.27;;;6.93;;
27706;SDS011;36332;51.384;0.040;2023-04-03T10:10:20;12.75;;;6.88;;
27706;SDS011;36332;51.384;0.040;2023-04-03T10:13:12;23.55;;;7.05;;
27706;SDS011;36332;51.384;0.040;2023-04-03T10:21:06;12.05;;;6.15;;
27706;SDS011;36332;51.384;0.040;2023-04-03T10:29:54;12.57;;;6.15;;
27706;SDS011;36332;51.384;0.040;2023-04-03T10:32:43;10.10;;;5.70;;
27706;SDS011;36332;51.384;0.040;2023-04-03T10:38:15;14.93;;;6.20;;
27706;SDS011;36332;51.384;0.040;2023-04-03T10:46:13;9.55;;;4.35;;
27706;SDS011;36332;51.384;0.040;2023-04-03T10:51:48;10.90;;;5.25;;
27706;SDS011;36332;51.384;0.040;2023-04-03T10:56:50;14.85;;;5.50;;
27706;SDS011;36332;51.384;0.040;2023-04-03T10:59:45;7.43;;;4.28;;
27706;SDS011;36332;51.384;0.040;2023-04-03T11:02:24;12.25;;;4.85;;
27706;SDS011;36332;51.384;0.040;2023-04-03T11:04:59;10.75;;;4.78;;
27706;SDS011;36332;51.384;0.040;2023-04-03T11:07:39;8.55;;;4.75;;
27706;SDS011;36332;51.384;0.040;2023-04-03T11:10:12;12.60;;;4.97;;
27706;SDS011;36332;51.384;0.040;2023-04-03T11:13:14;11.20;;;4.10;;
27706;SDS011;36332;51.384;0.040;2023-04-03T11:15:43;10.82;;;4.95;;
27706;SDS011;36332;51.384;0.040;2023-04-03T11:18:14;9.68;;;4.55;;
27706;SDS011;36332;51.384;0.040;2023-04-03T11:20:56;13.57;;;4.70;;
27706;SDS011;36332;51.384;0.040;2023-04-03T11:23:34;9.27;;;4.00;;
27706;SDS011;36332;51.384;0.040;2023-04-03T11:26:19;8.10;;;3.47;;
27706;SDS011;36332;51.384;0.040;2023-04-03T11:28:52;9.05;;;4.32;;
27706;SDS011;36332;51.384;0.040;2023-04-03T11:31:42;7.68;;;4.70;;
27706;SDS011;36332;51.384;0.040;2023-04-03T11:37:12;11.45;;;3.90;;
27706;SDS011;36332;51.384;0.040;2023-04-03T11:39:53;11.57;;;4.00;;
27706;SDS011;36332;51.384;0.040;2023-04-03T11:42:36;6.95;;;3.42;;
27706;SDS011;36332;51.384;0.040;2023-04-03T11:58:17;7.28;;;4.07;;
27706;SDS011;36332;51.384;0.040;2023-04-03T12:00:59;9.27;;;4.00;;
27706;SDS011;36332;51.384;0.040;2023-04-03T12:03:33;9.70;;;4.70;;
27706;SDS011;36332;51.384;0.040;2023-04-03T12:06:49;11.75;;;4.15;;
27706;SDS011;36332;51.384;0.040;2023-04-03T12:09:31;11.30;;;4.28;;
27706;SDS011;36332;51.384;0.040;2023-04-03T12:14:54;9.10;;;4.43;;
27706;SDS011;36332;51.384;0.040;2023-04-03T12:17:23;8.43;;;4.25;;
27706;SDS011;36332;51.384;0.040;2023-04-03T12:19:53;11.63;;;5.35;;
27706;SDS011;36332;51.384;0.040;2023-04-03T12:22:21;10.63;;;4.40;;
27706;SDS011;36332;51.384;0.040;2023-04-03T12:24:52;7.53;;;4.45;;
27706;SDS011;36332;51.384;0.040;2023-04-03T12:30:04;8.25;;;3.70;;
27706;SDS011;36332;51.384;0.040;2023-04-03T12:32:55;9.43;;;4.97;;
27706;SDS011;36332;51.384;0.040;2023-04-03T12:35:43;12.45;;;4.40;;
27706;SDS011;36332;51.384;0.040;2023-04-03T12:44:23;9.63;;;4.07;;
27706;SDS011;36332;51.384;0.040;2023-04-03T12:46:53;7.50;;;4.00;;
27706;SDS011;36332;51.384;0.040;2023-04-03T12:52:39;9.32;;;4.03;;
27706;SDS011;36332;51.384;0.040;2023-04-03T12:55:27;5.90;;;3.25;;
27706;SDS011;36332;51.384;0.040;2023-04-03T12:57:55;8.95;;;3.20;;
27706;SDS011;36332;51.384;0.040;2023-04-03T13:02:56;7.65;;;3.35;;
27706;SDS011;36332;51.384;0.040;2023-04-03T13:05:24;6.35;;;3.17;;
27706;SDS011;36332;51.384;0.040;2023-04-03T13:08:00;6.72;;;3.05;;
27706;SDS011;36332;51.384;0.040;2023-04-03T13:10:31;5.60;;;3.03;;
27706;SDS011;36332;51.384;0.040;2023-04-03T13:13:07;7.25;;;2.92;;
27706;SDS011;36332;51.384;0.040;2023-04-03T13:15:41;4.28;;;2.88;;
27706;SDS011;36332;51.384;0.040;2023-04-03T13:18:25;5.73;;;3.17;;
27706;SDS011;36332;51.384;0.040;2023-04-03T13:20:57;9.43;;;2.80;;
27706;SDS011;36332;51.384;0.040;2023-04-03T13:23:29;7.07;;;3.03;;
27706;SDS011;36332;51.384;0.040;2023-04-03T13:25:58;5.55;;;2.55;;
27706;SDS011;36332;51.384;0.040;2023-04-03T13:28:31;4.55;;;2.10;;
27706;SDS011;36332;51.384;0.040;2023-04-03T13:33:32;4.72;;;2.55;;
27706;SDS011;36332;51.384;0.040;2023-04-03T13:36:07;6.30;;;2.88;;
27706;SDS011;36332;51.384;0.040;2023-04-03T13:38:44;9.57;;;2.80;;
27706;SDS011;36332;51.384;0.040;2023-04-03T13:41:25;7.78;;;2.95;;
27706;SDS011;36332;51.384;0.040;2023-04-03T13:44:17;5.70;;;2.45;;
27706;SDS011;36332;51.384;0.040;2023-04-03T13:47:17;8.77;;;2.57;;
27706;SDS011;36332;51.384;0.040;2023-04-03T13:52:30;22.02;;;4.13;;
27706;SDS011;36332;51.384;0.040;2023-04-03T13:55:21;6.93;;;2.55;;
27706;SDS011;36332;51.384;0.040;2023-04-03T13:57:57;6.65;;;2.63;;
27706;SDS011;36332;51.384;0.040;2023-04-03T14:00:33;5.65;;;2.50;;
27706;SDS011;36332;51.384;0.040;2023-04-03T14:03:13;6.47;;;3.35;;
27706;SDS011;36332;51.384;0.040;2023-04-03T14:05:55;8.95;;;3.30;;
27706;SDS011;36332;51.384;0.040;2023-04-03T14:08:23;5.13;;;3.13;;
27706;SDS011;36332;51.384;0.040;2023-04-03T14:11:15;9.98;;;3.58;;
27706;SDS011;36332;51.384;0.040;2023-04-03T14:13:49;5.15;;;3.42;;
27706;SDS011;36332;51.384;0.040;2023-04-03T14:16:18;6.63;;;3.92;;
27706;SDS011;36332;51.384;0.040;2023-04-03T14:18:48;7.53;;;4.07;;
27706;SDS011;36332;51.384;0.040;2023-04-03T14:21:18;9.43;;;4.20;;
27706;SDS011;36332;51.384;0.040;2023-04-03T14:23:48;4.95;;;3.50;;
27706;SDS011;36332;51.384;0.040;2023-04-03T14:26:17;7.07;;;3.92;;
27706;SDS011;36332;51.384;0.040;2023-04-03T14:28:49;9.02;;;3.85;;
27706;SDS011;36332;51.384;0.040;2023-04-03T14:31:18;9.82;;;4.05;;
27706;SDS011;36332;51.384;0.040;2023-04-03T14:33:48;11.77;;;4.90;;
27706;SDS011;36332;51.384;0.040;2023-04-03T14:36:25;9.98;;;3.90;;
27706;SDS011;36332;51.384;0.040;2023-04-03T14:38:55;8.27;;;4.82;;
27706;SDS011;36332;51.384;0.040;2023-04-03T14:41:24;10.80;;;4.70;;
27706;SDS011;36332;51.384;0.040;2023-04-03T14:43:53;7.15;;;3.90;;
27706;SDS011;36332;51.384;0.040;2023-04-03T14:46:25;11.30;;;4.20;;
27706;SDS011;36332;51.384;0.040;2023-04-03T14:49:15;11.38;;;5.10;;
27706;SDS011;36332;51.384;0.040;2023-04-03T14:51:47;10.80;;;4.63;;
27706;SDS011;36332;51.384;0.040;2023-04-03T14:54:16;9.30;;;5.50;;
27706;SDS011;36332;51.384;0.040;2023-04-03T14:56:47;8.07;;;5.00;;
27706;SDS011;36332;51.384;0.040;2023-04-03T14:59:15;12.60;;;6.05;;
27706;SDS011;36332;51.384;0.040;2023-04-03T15:01:45;9.07;;;5.15;;
27706;SDS011;36332;51.384;0.040;2023-04-03T15:04:15;9.52;;;4.63;;
27706;SDS011;36332;51.384;0.040;2023-04-03T15:06:44;9.27;;;4.80;;
27706;SDS011;36332;51.384;0.040;2023-04-03T15:09:24;10.48;;;6.00;;
27706;SDS011;36332;51.384;0.040;2023-04-03T15:11:53;7.55;;;5.15;;
27706;SDS011;36332;51.384;0.040;2023-04-03T15:14:22;10.52;;;5.07;;
27706;SDS011;36332;51.384;0.040;2023-04-03T15:17:04;7.35;;;5.10;;
27706;SDS011;36332;51.384;0.040;2023-04-03T15:19:35;10.63;;;4.70;;
27706;SDS011;36332;51.384;0.040;2023-04-03T15:22:04;16.40;;;4.90;;
27706;SDS011;36332;51.384;0.040;2023-04-03T15:24:32;12.65;;;5.22;;
27706;SDS011;36332;51.384;0.040;2023-04-03T15:27:00;11.93;;;5.30;;
27706;SDS011;36332;51.384;0.040;2023-04-03T15:29:28;8.10;;;4.43;;
27706;SDS011;36332;51.384;0.040;2023-04-03T15:31:56;15.05;;;4.65;;
27706;SDS011;36332;51.384;0.040;2023-04-03T15:34:23;7.50;;;4.10;;
27706;SDS011;36332;51.384;0.040;2023-04-03T15:36:51;11.63;;;4.50;;
27706;SDS011;36332;51.384;0.040;2023-04-03T15:39:21;7.03;;;3.22;;
27706;SDS011;36332;51.384;0.040;2023-04-03T15:41:50;7.20;;;3.75;;
27706;SDS011;36332;51.384;0.040;2023-04-03T15:44:19;8.50;;;3.60;;
27706;SDS011;36332;51.384;0.040;2023-04-03T15:46:47;7.55;;;3.42;;
27706;SDS011;36332;51.384;0.040;2023-04-03T15:49:19;7.97;;;3.95;;
27706;SDS011;36332;51.384;0.040;2023-04-03T15:51:48;6.03;;;3.40;;
27706;SDS011;36332;51.384;0.040;2023-04-03T15:54:16;4.97;;;2.53;;
27706;SDS011;36332;51.384;0.040;2023-04-03T15:56:43;9.32;;;4.55;;
27706;SDS011;36332;51.384;0.040;2023-04-03T15:59:11;7.28;;;3.80;;
27706;SDS011;36332;51.384;0.040;2023-04-03T16:01:39;7.97;;;4.03;;
27706;SDS011;36332;51.384;0.040;2023-04-03T16:04:07;5.15;;;3.47;;
27706;SDS011;36332;51.384;0.040;2023-04-03T16:06:36;8.43;;;3.50;;
27706;SDS011;36332;51.384;0.040;2023-04-03T16:09:04;7.78;;;4.57;;
27706;SDS011;36332;51.384;0.040;2023-04-03T16:11:33;10.20;;;5.30;;
27706;SDS011;36332;51.384;0.040;2023-04-03T16:14:02;7.53;;;4.47;;
27706;SDS011;36332;51.384;0.040;2023-04-03T16:16:30;7.72;;;3.53;;
27706;SDS011;36332;51.384;0.040;2023-04-03T16:18:58;9.48;;;4.43;;
27706;SDS011;36332;51.384;0.040;2023-04-03T16:21:26;6.40;;;3.60;;
27706;SDS011;36332;51.384;0.040;2023-04-03T16:23:58;8.50;;;4.20;;
27706;SDS011;36332;51.384;0.040;2023-04-03T16:26:26;7.32;;;3.55;;
27706;SDS011;36332;51.384;0.040;2023-04-03T16:28:54;8.02;;;3.97;;
27706;SDS011;36332;51.384;0.040;2023-04-03T16:31:22;13.32;;;4.78;;
27706;SDS011;36332;51.384;0.040;2023-04-03T16:33:51;9.82;;;4.72;;
27706;SDS011;36332;51.384;0.040;2023-04-03T16:36:18;8.80;;;4.38;;
27706;SDS011;36332;51.384;0.040;2023-04-03T16:38:46;6.22;;;3.70;;